sensor_id;sensor_type;location;lat;lon;timestamp;temperature;humidity
17956;DHT22;27666;51.498;11.966;2023-04-15T00:02:35;8.20;99.90
17956;DHT22;27666;51.498;11.966;2023-04-15T00:05:22;8.10;99.90
17956;DHT22;27666;51.498;11.966;2023-04-15T00:08:08;8.20;99.90
17956;DHT22;27666;51.498;11.966;2023-04-15T00:10:54;8.20;99.90
17956;DHT22;27666;51.498;11.966;2023-04-15T00:13:45;8.20;99.90
17956;DHT22;27666;51.498;11.966;2023-04-15T00:16:31;8.20;99.90
17956;DHT22;27666;51.498;11.966;2023-04-15T00:19:18;8.20;99.90
17956;DHT22;27666;51.498;11.966;2023-04-15T00:22:05;8.20;99.90
17956;DHT22;27666;51.498;11.966;2023-04-15T00:24:52;8.20;99.90
17956;DHT22;27666;51.498;11.966;2023-04-15T00:27:38;8.20;99.90
17956;DHT22;27666;51.498;11.966;2023-04-15T00:30:26;8.10;99.90
17956;DHT22;27666;51.498;11.966;2023-04-15T00:33:13;8.20;99.90
17956;DHT22;27666;51.498;11.966;2023-04-15T00:36:00;8.20;99.90
17956;DHT22;27666;51.498;11.966;2023-04-15T00:38:47;8.10;99.90
17956;DHT22;27666;51.498;11.966;2023-04-15T00:41:34;8.20;99.90
17956;DHT22;27666;51.498;11.966;2023-04-15T00:44:26;8.20;99.90
17956;DHT22;27666;51.498;11.966;2023-04-15T00:47:15;8.20;99.90
17956;DHT22;27666;51.498;11.966;2023-04-15T00:50:03;8.20;99.90
17956;DHT22;27666;51.498;11.966;2023-04-15T00:52:50;8.20;99.90
17956;DHT22;27666;51.498;11.966;2023-04-15T00:55:36;8.20;99.90
17956;DHT22;27666;51.498;11.966;2023-04-15T00:58:24;8.20;99.90
17956;DHT22;27666;51.498;11.966;2023-04-15T01:01:12;8.20;99.90
17956;DHT22;27666;51.498;11.966;2023-04-15T01:04:00;8.20;99.90
17956;DHT22;27666;51.498;11.966;2023-04-15T01:06:47;8.30;99.90
17956;DHT22;27666;51.498;11.966;2023-04-15T01:09:33;8.30;99.90
17956;DHT22;27666;51.498;11.966;2023-04-15T01:12:20;8.30;99.90
17956;DHT22;27666;51.498;11.966;2023-04-15T01:15:08;8.30;99.90
17956;DHT22;27666;51.498;11.966;2023-04-15T01:17:56;8.40;99.90
17956;DHT22;27666;51.498;11.966;2023-04-15T01:20:45;8.40;99.90
17956;DHT22;27666;51.498;11.966;2023-04-15T01:23:32;8.40;99.90
17956;DHT22;27666;51.498;11.966;2023-04-15T01:26:21;8.30;99.90
17956;DHT22;27666;51.498;11.966;2023-04-15T01:29:07;8.30;99.90
17956;DHT22;27666;51.498;11.966;2023-04-15T01:31:56;8.30;99.90
17956;DHT22;27666;51.498;11.966;2023-04-15T01:34:43;8.30;99.90
17956;DHT22;27666;51.498;11.966;2023-04-15T01:37:29;8.20;99.90
17956;DHT22;27666;51.498;11.966;2023-04-15T01:40:16;8.20;99.90
17956;DHT22;27666;51.498;11.966;2023-04-15T01:43:04;8.30;99.90
17956;DHT22;27666;51.498;11.966;2023-04-15T01:45:50;8.20;99.90
17956;DHT22;27666;51.498;11.966;2023-04-15T01:48:37;8.20;99.90
17956;DHT22;27666;51.498;11.966;2023-04-15T01:51:23;8.10;99.90
17956;DHT22;27666;51.498;11.966;2023-04-15T01:54:10;8.10;99.90
17956;DHT22;27666;51.498;11.966;2023-04-15T01:56:56;8.20;99.90
17956;DHT22;27666;51.498;11.966;2023-04-15T01:59:44;8.20;99.90
17956;DHT22;27666;51.498;11.966;2023-04-15T02:02:31;8.20;99.90
17956;DHT22;27666;51.498;11.966;2023-04-15T02:05:18;8.20;99.90
17956;DHT22;27666;51.498;11.966;2023-04-15T02:08:04;8.10;99.90
17956;DHT22;27666;51.498;11.966;2023-04-15T02:10:51;8.10;99.90
17956;DHT22;27666;51.498;11.966;2023-04-15T02:13:37;8.20;99.90
17956;DHT22;27666;51.498;11.966;2023-04-15T02:16:25;8.10;99.90
17956;DHT22;27666;51.498;11.966;2023-04-15T02:19:12;8.10;99.90
17956;DHT22;27666;51.498;11.966;2023-04-15T02:21:59;8.20;99.90
17956;DHT22;27666;51.498;11.966;2023-04-15T02:24:45;8.10;99.90
17956;DHT22;27666;51.498;11.966;2023-04-15T02:27:32;8.00;99.90
17956;DHT22;27666;51.498;11.966;2023-04-15T02:30:18;8.00;99.90
17956;DHT22;27666;51.498;11.966;2023-04-15T02:33:09;8.00;99.90
17956;DHT22;27666;51.498;11.966;2023-04-15T02:35:56;8.10;99.90
17956;DHT22;27666;51.498;11.966;2023-04-15T02:38:43;8.00;99.90
17956;DHT22;27666;51.498;11.966;2023-04-15T02:41:30;8.00;99.90
17956;DHT22;27666;51.498;11.966;2023-04-15T02:44:16;8.10;99.90
17956;DHT22;27666;51.498;11.966;2023-04-15T02:47:04;8.00;99.90
17956;DHT22;27666;51.498;11.966;2023-04-15T02:49:52;8.00;99.90
17956;DHT22;27666;51.498;11.966;2023-04-15T02:52:39;7.90;99.90
17956;DHT22;27666;51.498;11.966;2023-04-15T02:55:26;7.90;99.90
17956;DHT22;27666;51.498;11.966;2023-04-15T02:58:12;7.90;99.90
17956;DHT22;27666;51.498;11.966;2023-04-15T03:00:59;7.80;99.90
17956;DHT22;27666;51.498;11.966;2023-04-15T03:03:45;7.90;99.90
17956;DHT22;27666;51.498;11.966;2023-04-15T03:06:34;7.90;99.90
17956;DHT22;27666;51.498;11.966;2023-04-15T03:09:20;7.80;99.90
17956;DHT22;27666;51.498;11.966;2023-04-15T03:12:07;7.90;99.90
17956;DHT22;27666;51.498;11.966;2023-04-15T03:14:53;7.80;99.90
17956;DHT22;27666;51.498;11.966;2023-04-15T03:17:40;7.90;99.90
17956;DHT22;27666;51.498;11.966;2023-04-15T03:20:26;7.90;99.90
17956;DHT22;27666;51.498;11.966;2023-04-15T03:23:14;7.80;99.90
17956;DHT22;27666;51.498;11.966;2023-04-15T03:26:02;7.80;99.90
17956;DHT22;27666;51.498;11.966;2023-04-15T03:28:48;7.80;99.90
17956;DHT22;27666;51.498;11.966;2023-04-15T03:31:35;7.70;99.90
17956;DHT22;27666;51.498;11.966;2023-04-15T03:34:21;7.70;99.90
17956;DHT22;27666;51.498;11.966;2023-04-15T03:37:08;7.60;99.90
17956;DHT22;27666;51.498;11.966;2023-04-15T03:39:56;7.60;99.90
17956;DHT22;27666;51.498;11.966;2023-04-15T03:42:42;7.60;99.90
17956;DHT22;27666;51.498;11.966;2023-04-15T03:45:29;7.60;99.90
17956;DHT22;27666;51.498;11.966;2023-04-15T03:48:15;7.70;99.90
17956;DHT22;27666;51.498;11.966;2023-04-15T03:51:02;7.70;99.90
17956;DHT22;27666;51.498;11.966;2023-04-15T03:53:49;7.70;99.90
17956;DHT22;27666;51.498;11.966;2023-04-15T03:56:37;7.60;99.90
17956;DHT22;27666;51.498;11.966;2023-04-15T03:59:24;7.60;99.90
17956;DHT22;27666;51.498;11.966;2023-04-15T04:02:10;7.70;99.90
17956;DHT22;27666;51.498;11.966;2023-04-15T04:04:57;7.60;99.90
17956;DHT22;27666;51.498;11.966;2023-04-15T04:07:44;7.70;99.90
17956;DHT22;27666;51.498;11.966;2023-04-15T04:10:31;7.70;99.90
17956;DHT22;27666;51.498;11.966;2023-04-15T04:13:19;7.80;99.90
17956;DHT22;27666;51.498;11.966;2023-04-15T04:16:05;7.80;99.90
17956;DHT22;27666;51.498;11.966;2023-04-15T04:18:52;7.80;99.90
17956;DHT22;27666;51.498;11.966;2023-04-15T04:21:39;7.80;99.90
17956;DHT22;27666;51.498;11.966;2023-04-15T04:24:26;7.90;99.90
17956;DHT22;27666;51.498;11.966;2023-04-15T04:27:12;7.90;99.90
17956;DHT22;27666;51.498;11.966;2023-04-15T04:30:00;8.00;99.90
17956;DHT22;27666;51.498;11.966;2023-04-15T04:32:46;7.90;99.90
17956;DHT22;27666;51.498;11.966;2023-04-15T04:35:33;8.00;99.90
17956;DHT22;27666;51.498;11.966;2023-04-15T04:38:21;8.00;99.90
17956;DHT22;27666;51.498;11.966;2023-04-15T04:41:08;8.00;99.90
17956;DHT22;27666;51.498;11.966;2023-04-15T04:43:54;7.90;99.90
17956;DHT22;27666;51.498;11.966;2023-04-15T04:46:41;7.90;99.90
17956;DHT22;27666;51.498;11.966;2023-04-15T04:49:28;8.00;99.90
17956;DHT22;27666;51.498;11.966;2023-04-15T04:52:15;8.00;99.90
17956;DHT22;27666;51.498;11.966;2023-04-15T04:55:02;7.90;99.90
17956;DHT22;27666;51.498;11.966;2023-04-15T04:57:48;7.90;99.90
17956;DHT22;27666;51.498;11.966;2023-04-15T05:00:35;7.90;99.90
17956;DHT22;27666;51.498;11.966;2023-04-15T05:03:24;7.90;99.90
17956;DHT22;27666;51.498;11.966;2023-04-15T05:06:10;7.90;99.90
17956;DHT22;27666;51.498;11.966;2023-04-15T05:08:57;7.90;99.90
17956;DHT22;27666;51.498;11.966;2023-04-15T05:11:44;8.00;99.90
17956;DHT22;27666;51.498;11.966;2023-04-15T05:14:30;7.90;99.90
17956;DHT22;27666;51.498;11.966;2023-04-15T05:17:19;8.00;99.90
17956;DHT22;27666;51.498;11.966;2023-04-15T05:20:08;8.00;99.90
17956;DHT22;27666;51.498;11.966;2023-04-15T05:22:55;8.00;99.90
17956;DHT22;27666;51.498;11.966;2023-04-15T05:25:41;8.00;99.90
17956;DHT22;27666;51.498;11.966;2023-04-15T05:28:27;8.00;99.90
17956;DHT22;27666;51.498;11.966;2023-04-15T05:31:14;7.90;99.90
17956;DHT22;27666;51.498;11.966;2023-04-15T05:34:00;7.90;99.90
17956;DHT22;27666;51.498;11.966;2023-04-15T05:36:48;8.00;99.90
17956;DHT22;27666;51.498;11.966;2023-04-15T05:39:35;7.90;99.90
17956;DHT22;27666;51.498;11.966;2023-04-15T05:42:21;8.00;99.90
17956;DHT22;27666;51.498;11.966;2023-04-15T05:45:08;8.00;99.90
17956;DHT22;27666;51.498;11.966;2023-04-15T05:47:55;8.10;99.90
17956;DHT22;27666;51.498;11.966;2023-04-15T05:50:41;8.00;99.90
17956;DHT22;27666;51.498;11.966;2023-04-15T05:53:29;8.00;99.90
17956;DHT22;27666;51.498;11.966;2023-04-15T05:56:16;8.00;99.90
17956;DHT22;27666;51.498;11.966;2023-04-15T05:59:04;8.00;99.90
17956;DHT22;27666;51.498;11.966;2023-04-15T06:01:50;8.10;99.90
17956;DHT22;27666;51.498;11.966;2023-04-15T06:04:38;8.10;99.90
17956;DHT22;27666;51.498;11.966;2023-04-15T06:07:25;8.10;99.90
17956;DHT22;27666;51.498;11.966;2023-04-15T06:10:12;8.10;99.90
17956;DHT22;27666;51.498;11.966;2023-04-15T06:12:59;8.00;99.90
17956;DHT22;27666;51.498;11.966;2023-04-15T06:15:45;8.10;99.90
17956;DHT22;27666;51.498;11.966;2023-04-15T06:18:32;8.00;99.90
17956;DHT22;27666;51.498;11.966;2023-04-15T06:21:19;8.00;99.90
17956;DHT22;27666;51.498;11.966;2023-04-15T06:24:06;8.10;99.90
17956;DHT22;27666;51.498;11.966;2023-04-15T06:26:54;8.00;99.90
17956;DHT22;27666;51.498;11.966;2023-04-15T06:29:43;8.10;99.90
17956;DHT22;27666;51.498;11.966;2023-04-15T06:32:31;8.10;99.90
17956;DHT22;27666;51.498;11.966;2023-04-15T06:35:18;8.00;99.90
17956;DHT22;27666;51.498;11.966;2023-04-15T06:38:05;8.00;99.90
17956;DHT22;27666;51.498;11.966;2023-04-15T06:40:52;8.20;99.90
17956;DHT22;27666;51.498;11.966;2023-04-15T06:43:40;8.10;99.90
17956;DHT22;27666;51.498;11.966;2023-04-15T06:46:26;8.20;99.90
17956;DHT22;27666;51.498;11.966;2023-04-15T06:49:13;8.10;99.90
17956;DHT22;27666;51.498;11.966;2023-04-15T06:51:59;8.00;99.90
17956;DHT22;27666;51.498;11.966;2023-04-15T06:54:46;8.00;99.90
17956;DHT22;27666;51.498;11.966;2023-04-15T06:57:32;8.10;99.90
17956;DHT22;27666;51.498;11.966;2023-04-15T07:00:21;8.10;99.90
17956;DHT22;27666;51.498;11.966;2023-04-15T07:03:07;8.10;99.90
17956;DHT22;27666;51.498;11.966;2023-04-15T07:05:55;8.10;99.90
17956;DHT22;27666;51.498;11.966;2023-04-15T07:08:41;8.10;99.90
17956;DHT22;27666;51.498;11.966;2023-04-15T07:11:29;8.30;99.90
17956;DHT22;27666;51.498;11.966;2023-04-15T07:14:15;8.30;99.90
17956;DHT22;27666;51.498;11.966;2023-04-15T07:17:03;8.30;99.90
17956;DHT22;27666;51.498;11.966;2023-04-15T07:19:51;8.30;99.90
17956;DHT22;27666;51.498;11.966;2023-04-15T07:22:37;8.30;99.90
17956;DHT22;27666;51.498;11.966;2023-04-15T07:25:23;8.30;99.90
17956;DHT22;27666;51.498;11.966;2023-04-15T07:28:10;8.40;99.90
17956;DHT22;27666;51.498;11.966;2023-04-15T07:30:57;8.40;99.90
17956;DHT22;27666;51.498;11.966;2023-04-15T07:33:45;8.50;99.90
17956;DHT22;27666;51.498;11.966;2023-04-15T07:36:32;8.40;99.90
17956;DHT22;27666;51.498;11.966;2023-04-15T07:39:18;8.50;99.90
17956;DHT22;27666;51.498;11.966;2023-04-15T07:42:05;8.40;99.90
17956;DHT22;27666;51.498;11.966;2023-04-15T07:44:52;8.40;99.90
17956;DHT22;27666;51.498;11.966;2023-04-15T07:47:39;8.40;99.90
17956;DHT22;27666;51.498;11.966;2023-04-15T07:50:28;8.40;99.90
17956;DHT22;27666;51.498;11.966;2023-04-15T07:53:15;8.30;99.90
17956;DHT22;27666;51.498;11.966;2023-04-15T07:56:01;8.50;99.90
17956;DHT22;27666;51.498;11.966;2023-04-15T07:58:47;8.40;99.90
17956;DHT22;27666;51.498;11.966;2023-04-15T08:01:34;8.40;99.90
17956;DHT22;27666;51.498;11.966;2023-04-15T08:04:20;8.50;99.90
17956;DHT22;27666;51.498;11.966;2023-04-15T08:07:09;8.40;99.90
17956;DHT22;27666;51.498;11.966;2023-04-15T08:09:56;8.50;99.90
17956;DHT22;27666;51.498;11.966;2023-04-15T08:12:43;8.50;99.90
17956;DHT22;27666;51.498;11.966;2023-04-15T08:15:33;8.50;99.90
17956;DHT22;27666;51.498;11.966;2023-04-15T08:18:19;8.50;99.90
17956;DHT22;27666;51.498;11.966;2023-04-15T08:21:06;8.50;99.90
17956;DHT22;27666;51.498;11.966;2023-04-15T08:23:55;8.50;99.90
17956;DHT22;27666;51.498;11.966;2023-04-15T08:26:44;8.40;99.90
17956;DHT22;27666;51.498;11.966;2023-04-15T08:29:31;8.40;99.90
17956;DHT22;27666;51.498;11.966;2023-04-15T08:32:18;8.40;99.90
17956;DHT22;27666;51.498;11.966;2023-04-15T08:35:06;8.30;99.90
17956;DHT22;27666;51.498;11.966;2023-04-15T08:37:53;8.40;99.90
17956;DHT22;27666;51.498;11.966;2023-04-15T08:40:42;8.40;99.90
17956;DHT22;27666;51.498;11.966;2023-04-15T08:43:33;8.40;99.90
17956;DHT22;27666;51.498;11.966;2023-04-15T08:46:20;8.40;99.90
17956;DHT22;27666;51.498;11.966;2023-04-15T08:49:09;8.50;99.90
17956;DHT22;27666;51.498;11.966;2023-04-15T08:51:58;8.50;99.90
17956;DHT22;27666;51.498;11.966;2023-04-15T08:54:45;8.60;99.90
17956;DHT22;27666;51.498;11.966;2023-04-15T08:57:33;8.70;99.90
17956;DHT22;27666;51.498;11.966;2023-04-15T09:00:20;8.60;99.90
17956;DHT22;27666;51.498;11.966;2023-04-15T09:03:08;8.60;99.90
17956;DHT22;27666;51.498;11.966;2023-04-15T09:05:55;8.60;99.90
17956;DHT22;27666;51.498;11.966;2023-04-15T09:08:42;8.70;99.90
17956;DHT22;27666;51.498;11.966;2023-04-15T09:11:29;8.80;99.90
17956;DHT22;27666;51.498;11.966;2023-04-15T09:14:17;8.70;99.90
17956;DHT22;27666;51.498;11.966;2023-04-15T09:17:04;8.70;99.90
17956;DHT22;27666;51.498;11.966;2023-04-15T09:20:07;8.80;99.90
17956;DHT22;27666;51.498;11.966;2023-04-15T09:22:53;8.90;99.90
17956;DHT22;27666;51.498;11.966;2023-04-15T09:25:40;8.80;99.90
17956;DHT22;27666;51.498;11.966;2023-04-15T09:28:27;8.90;99.90
17956;DHT22;27666;51.498;11.966;2023-04-15T09:31:16;8.90;99.90
17956;DHT22;27666;51.498;11.966;2023-04-15T09:34:05;8.90;99.90
17956;DHT22;27666;51.498;11.966;2023-04-15T09:36:56;8.90;99.90
17956;DHT22;27666;51.498;11.966;2023-04-15T09:39:47;8.90;99.90
17956;DHT22;27666;51.498;11.966;2023-04-15T09:42:34;9.00;99.90
17956;DHT22;27666;51.498;11.966;2023-04-15T09:45:21;9.00;99.90
17956;DHT22;27666;51.498;11.966;2023-04-15T09:48:17;9.00;99.90
17956;DHT22;27666;51.498;11.966;2023-04-15T09:51:05;9.00;99.90
17956;DHT22;27666;51.498;11.966;2023-04-15T09:53:54;9.00;99.90
17956;DHT22;27666;51.498;11.966;2023-04-15T09:56:42;8.90;99.90
17956;DHT22;27666;51.498;11.966;2023-04-15T09:59:29;8.90;99.90
17956;DHT22;27666;51.498;11.966;2023-04-15T10:02:17;8.90;99.90
17956;DHT22;27666;51.498;11.966;2023-04-15T10:05:07;8.90;99.90
17956;DHT22;27666;51.498;11.966;2023-04-15T10:07:56;8.90;99.90
17956;DHT22;27666;51.498;11.966;2023-04-15T10:10:47;9.10;99.90
17956;DHT22;27666;51.498;11.966;2023-04-15T10:13:35;9.00;99.90
17956;DHT22;27666;51.498;11.966;2023-04-15T10:16:25;9.10;99.90
17956;DHT22;27666;51.498;11.966;2023-04-15T10:19:13;9.10;99.90
17956;DHT22;27666;51.498;11.966;2023-04-15T10:22:02;9.20;99.90
17956;DHT22;27666;51.498;11.966;2023-04-15T10:24:50;9.20;99.90
17956;DHT22;27666;51.498;11.966;2023-04-15T10:27:39;9.30;99.90
17956;DHT22;27666;51.498;11.966;2023-04-15T10:30:26;9.20;99.90
17956;DHT22;27666;51.498;11.966;2023-04-15T10:33:16;9.20;99.90
17956;DHT22;27666;51.498;11.966;2023-04-15T10:36:05;9.20;99.90
17956;DHT22;27666;51.498;11.966;2023-04-15T10:38:54;9.30;99.90
17956;DHT22;27666;51.498;11.966;2023-04-15T10:41:40;9.20;99.90
17956;DHT22;27666;51.498;11.966;2023-04-15T10:44:27;9.30;99.90
17956;DHT22;27666;51.498;11.966;2023-04-15T10:47:15;9.30;99.90
17956;DHT22;27666;51.498;11.966;2023-04-15T10:50:04;9.30;99.90
17956;DHT22;27666;51.498;11.966;2023-04-15T10:52:51;9.40;99.90
17956;DHT22;27666;51.498;11.966;2023-04-15T10:55:39;9.30;99.90
17956;DHT22;27666;51.498;11.966;2023-04-15T10:58:40;9.30;99.90
17956;DHT22;27666;51.498;11.966;2023-04-15T11:01:51;9.40;99.90
17956;DHT22;27666;51.498;11.966;2023-04-15T11:04:53;9.40;99.90
17956;DHT22;27666;51.498;11.966;2023-04-15T11:07:51;9.50;99.90
17956;DHT22;27666;51.498;11.966;2023-04-15T11:10:57;9.50;99.90
17956;DHT22;27666;51.498;11.966;2023-04-15T11:13:47;9.60;99.90
17956;DHT22;27666;51.498;11.966;2023-04-15T11:16:41;9.60;99.90
17956;DHT22;27666;51.498;11.966;2023-04-15T11:19:35;9.70;99.90
17956;DHT22;27666;51.498;11.966;2023-04-15T11:22:22;9.80;99.90
17956;DHT22;27666;51.498;11.966;2023-04-15T11:25:09;9.80;99.90
17956;DHT22;27666;51.498;11.966;2023-04-15T11:27:58;9.90;99.90
17956;DHT22;27666;51.498;11.966;2023-04-15T11:30:45;9.90;99.90
17956;DHT22;27666;51.498;11.966;2023-04-15T11:33:32;9.90;99.90
17956;DHT22;27666;51.498;11.966;2023-04-15T11:36:19;9.90;99.90
17956;DHT22;27666;51.498;11.966;2023-04-15T11:39:06;9.90;99.90
17956;DHT22;27666;51.498;11.966;2023-04-15T11:41:53;9.90;99.90
17956;DHT22;27666;51.498;11.966;2023-04-15T11:44:41;9.90;99.90
17956;DHT22;27666;51.498;11.966;2023-04-15T11:47:31;9.90;99.90
17956;DHT22;27666;51.498;11.966;2023-04-15T11:50:18;10.00;99.90
17956;DHT22;27666;51.498;11.966;2023-04-15T11:53:07;10.00;99.90
17956;DHT22;27666;51.498;11.966;2023-04-15T11:55:54;10.00;99.90
17956;DHT22;27666;51.498;11.966;2023-04-15T11:58:41;10.10;99.90
17956;DHT22;27666;51.498;11.966;2023-04-15T12:01:34;10.10;99.90
17956;DHT22;27666;51.498;11.966;2023-04-15T12:04:21;10.10;99.90
17956;DHT22;27666;51.498;11.966;2023-04-15T12:07:10;10.10;99.90
17956;DHT22;27666;51.498;11.966;2023-04-15T12:09:57;10.10;99.90
17956;DHT22;27666;51.498;11.966;2023-04-15T12:12:48;10.10;99.90
17956;DHT22;27666;51.498;11.966;2023-04-15T12:15:37;10.10;99.90
17956;DHT22;27666;51.498;11.966;2023-04-15T12:18:25;10.20;99.90
17956;DHT22;27666;51.498;11.966;2023-04-15T12:21:12;10.30;99.90
17956;DHT22;27666;51.498;11.966;2023-04-15T12:24:01;10.30;99.90
17956;DHT22;27666;51.498;11.966;2023-04-15T12:26:50;10.20;99.90
17956;DHT22;27666;51.498;11.966;2023-04-15T12:29:38;10.20;99.90
17956;DHT22;27666;51.498;11.966;2023-04-15T12:32:24;10.20;99.90
17956;DHT22;27666;51.498;11.966;2023-04-15T12:35:13;10.10;99.90
17956;DHT22;27666;51.498;11.966;2023-04-15T12:38:00;10.20;99.90
17956;DHT22;27666;51.498;11.966;2023-04-15T12:40:47;10.20;99.90
17956;DHT22;27666;51.498;11.966;2023-04-15T12:43:33;10.20;99.90
17956;DHT22;27666;51.498;11.966;2023-04-15T12:46:20;10.10;99.90
17956;DHT22;27666;51.498;11.966;2023-04-15T12:49:07;10.00;99.90
17956;DHT22;27666;51.498;11.966;2023-04-15T12:51:56;10.00;99.90
17956;DHT22;27666;51.498;11.966;2023-04-15T12:54:44;10.00;99.90
17956;DHT22;27666;51.498;11.966;2023-04-15T12:57:30;10.00;99.90
17956;DHT22;27666;51.498;11.966;2023-04-15T13:00:17;10.00;99.90
17956;DHT22;27666;51.498;11.966;2023-04-15T13:03:04;10.00;99.90
17956;DHT22;27666;51.498;11.966;2023-04-15T13:05:51;10.00;99.90
17956;DHT22;27666;51.498;11.966;2023-04-15T13:08:39;9.90;99.90
17956;DHT22;27666;51.498;11.966;2023-04-15T13:11:35;10.00;99.90
17956;DHT22;27666;51.498;11.966;2023-04-15T13:14:21;9.90;99.90
17956;DHT22;27666;51.498;11.966;2023-04-15T13:17:08;10.00;99.90
17956;DHT22;27666;51.498;11.966;2023-04-15T13:19:55;9.90;99.90
17956;DHT22;27666;51.498;11.966;2023-04-15T13:22:42;10.00;99.90
17956;DHT22;27666;51.498;11.966;2023-04-15T13:25:30;10.00;99.90
17956;DHT22;27666;51.498;11.966;2023-04-15T13:28:16;10.00;99.90
17956;DHT22;27666;51.498;11.966;2023-04-15T13:31:04;10.10;99.90
17956;DHT22;27666;51.498;11.966;2023-04-15T13:33:51;10.10;99.90
17956;DHT22;27666;51.498;11.966;2023-04-15T13:36:38;10.10;99.90
17956;DHT22;27666;51.498;11.966;2023-04-15T13:39:24;10.20;99.90
17956;DHT22;27666;51.498;11.966;2023-04-15T13:42:12;10.10;99.90
17956;DHT22;27666;51.498;11.966;2023-04-15T13:44:58;10.10;99.90
17956;DHT22;27666;51.498;11.966;2023-04-15T13:47:44;10.10;99.90
17956;DHT22;27666;51.498;11.966;2023-04-15T13:50:31;10.10;99.90
17956;DHT22;27666;51.498;11.966;2023-04-15T13:53:18;10.10;99.90
17956;DHT22;27666;51.498;11.966;2023-04-15T13:56:05;10.10;99.90
17956;DHT22;27666;51.498;11.966;2023-04-15T13:58:53;10.20;99.90
17956;DHT22;27666;51.498;11.966;2023-04-15T14:01:43;10.20;99.90
17956;DHT22;27666;51.498;11.966;2023-04-15T14:04:30;10.20;99.90
17956;DHT22;27666;51.498;11.966;2023-04-15T14:07:17;10.20;99.90
17956;DHT22;27666;51.498;11.966;2023-04-15T14:10:04;10.20;99.90
17956;DHT22;27666;51.498;11.966;2023-04-15T14:12:51;10.20;99.90
17956;DHT22;27666;51.498;11.966;2023-04-15T14:15:39;10.10;99.90
17956;DHT22;27666;51.498;11.966;2023-04-15T14:18:26;10.20;99.90
17956;DHT22;27666;51.498;11.966;2023-04-15T14:23:59;10.10;99.90
17956;DHT22;27666;51.498;11.966;2023-04-15T14:26:46;10.10;99.90
17956;DHT22;27666;51.498;11.966;2023-04-15T14:29:32;10.10;99.90
17956;DHT22;27666;51.498;11.966;2023-04-15T14:32:21;10.10;99.90
17956;DHT22;27666;51.498;11.966;2023-04-15T14:35:08;10.10;99.90
17956;DHT22;27666;51.498;11.966;2023-04-15T14:37:54;10.10;99.90
17956;DHT22;27666;51.498;11.966;2023-04-15T14:40:41;10.10;99.90
17956;DHT22;27666;51.498;11.966;2023-04-15T14:43:28;10.10;99.90
17956;DHT22;27666;51.498;11.966;2023-04-15T14:46:15;10.00;99.90
17956;DHT22;27666;51.498;11.966;2023-04-15T14:49:03;10.10;99.90
17956;DHT22;27666;51.498;11.966;2023-04-15T14:51:50;10.10;99.90
17956;DHT22;27666;51.498;11.966;2023-04-15T14:54:36;10.10;99.90
17956;DHT22;27666;51.498;11.966;2023-04-15T14:57:26;10.10;99.90
17956;DHT22;27666;51.498;11.966;2023-04-15T15:00:13;10.10;99.90
17956;DHT22;27666;51.498;11.966;2023-04-15T15:03:00;10.10;99.90
17956;DHT22;27666;51.498;11.966;2023-04-15T15:05:49;10.10;99.90
17956;DHT22;27666;51.498;11.966;2023-04-15T15:08:36;10.20;99.90
17956;DHT22;27666;51.498;11.966;2023-04-15T15:11:24;10.20;99.90
17956;DHT22;27666;51.498;11.966;2023-04-15T15:14:11;10.10;99.90
17956;DHT22;27666;51.498;11.966;2023-04-15T15:16:58;10.10;99.90
17956;DHT22;27666;51.498;11.966;2023-04-15T15:19:44;10.10;99.90
17956;DHT22;27666;51.498;11.966;2023-04-15T15:22:32;10.20;99.90
17956;DHT22;27666;51.498;11.966;2023-04-15T15:25:19;10.30;99.90
17956;DHT22;27666;51.498;11.966;2023-04-15T15:28:06;10.30;99.90
17956;DHT22;27666;51.498;11.966;2023-04-15T15:30:52;10.30;99.90
17956;DHT22;27666;51.498;11.966;2023-04-15T15:33:39;10.30;99.90
17956;DHT22;27666;51.498;11.966;2023-04-15T15:36:26;10.20;99.90
17956;DHT22;27666;51.498;11.966;2023-04-15T15:39:14;10.20;99.90
17956;DHT22;27666;51.498;11.966;2023-04-15T15:42:01;10.20;99.90
17956;DHT22;27666;51.498;11.966;2023-04-15T15:44:48;10.20;99.90
17956;DHT22;27666;51.498;11.966;2023-04-15T15:47:36;10.20;99.90
17956;DHT22;27666;51.498;11.966;2023-04-15T15:50:23;10.20;99.90
17956;DHT22;27666;51.498;11.966;2023-04-15T15:53:10;10.20;99.90
17956;DHT22;27666;51.498;11.966;2023-04-15T15:56:03;10.10;99.90
17956;DHT22;27666;51.498;11.966;2023-04-15T15:58:50;10.20;99.90
17956;DHT22;27666;51.498;11.966;2023-04-15T16:01:36;10.20;99.90
17956;DHT22;27666;51.498;11.966;2023-04-15T16:04:23;10.20;99.90
17956;DHT22;27666;51.498;11.966;2023-04-15T16:07:10;10.20;99.90
17956;DHT22;27666;51.498;11.966;2023-04-15T16:09:58;10.20;99.90
17956;DHT22;27666;51.498;11.966;2023-04-15T16:12:46;10.10;99.90
17956;DHT22;27666;51.498;11.966;2023-04-15T16:15:33;10.20;99.90
17956;DHT22;27666;51.498;11.966;2023-04-15T16:18:19;10.10;99.90
17956;DHT22;27666;51.498;11.966;2023-04-15T16:21:06;10.10;99.90
17956;DHT22;27666;51.498;11.966;2023-04-15T16:23:52;10.10;99.90
17956;DHT22;27666;51.498;11.966;2023-04-15T16:26:39;10.10;99.90
17956;DHT22;27666;51.498;11.966;2023-04-15T16:29:27;10.10;99.90
17956;DHT22;27666;51.498;11.966;2023-04-15T16:32:14;10.10;99.90
17956;DHT22;27666;51.498;11.966;2023-04-15T16:35:01;10.10;99.90
17956;DHT22;27666;51.498;11.966;2023-04-15T16:37:48;10.10;99.90
17956;DHT22;27666;51.498;11.966;2023-04-15T16:40:35;10.00;99.90
17956;DHT22;27666;51.498;11.966;2023-04-15T16:43:22;10.10;99.90
17956;DHT22;27666;51.498;11.966;2023-04-15T16:46:10;10.10;99.90
17956;DHT22;27666;51.498;11.966;2023-04-15T16:48:56;10.10;99.90
17956;DHT22;27666;51.498;11.966;2023-04-15T16:51:43;10.10;99.90
17956;DHT22;27666;51.498;11.966;2023-04-15T16:54:29;10.10;99.90
17956;DHT22;27666;51.498;11.966;2023-04-15T16:57:18;10.10;99.90
17956;DHT22;27666;51.498;11.966;2023-04-15T17:00:06;10.20;99.90
17956;DHT22;27666;51.498;11.966;2023-04-15T17:02:55;10.10;99.90
17956;DHT22;27666;51.498;11.966;2023-04-15T17:05:42;10.20;99.90
17956;DHT22;27666;51.498;11.966;2023-04-15T17:08:28;10.10;99.90
17956;DHT22;27666;51.498;11.966;2023-04-15T17:11:14;10.10;99.90
17956;DHT22;27666;51.498;11.966;2023-04-15T17:14:01;10.10;99.90
17956;DHT22;27666;51.498;11.966;2023-04-15T17:16:48;10.10;99.90
17956;DHT22;27666;51.498;11.966;2023-04-15T17:19:36;10.00;99.90
17956;DHT22;27666;51.498;11.966;2023-04-15T17:22:22;10.00;99.90
17956;DHT22;27666;51.498;11.966;2023-04-15T17:25:09;10.00;99.90
17956;DHT22;27666;51.498;11.966;2023-04-15T17:27:55;10.00;99.90
17956;DHT22;27666;51.498;11.966;2023-04-15T17:30:42;10.00;99.90
17956;DHT22;27666;51.498;11.966;2023-04-15T17:33:28;10.00;99.90
17956;DHT22;27666;51.498;11.966;2023-04-15T17:36:36;10.00;99.90